Daglege Rapportar

Klikk her for oppdatering!


Detaljar i dag

9/4/20
Time         Wind Dir   Wind Spd  Wind Gust   Humidity       Temp  Raw Barom   Tot Rain Temp Out H Temp Out L  DailyRain   HourRain
                            mps        mps          %         C         mb         mm         C         C         mm         mm
0:00              355          1          6         79        4.6    1019.98     496.00        4.6        4.6       0.00       0.00
1:00                9          2          8         82        4.0    1020.55     496.00        4.7        4.0       0.00       0.00
2:00              303          4          5         80        3.4    1020.89     496.40        4.7        3.4       0.40       0.40
3:00              346          1          8         74        3.4    1021.53     496.40        4.7        3.2       0.40       0.00
4:00              323          1          4         71        3.6    1021.56     496.40        4.7        3.1       0.40       0.00
5:00              346          3          6         74        3.6    1021.94     496.40        4.7        3.1       0.40       0.00
6:00              324          2          8         78        3.5    1022.44     496.40        4.7        3.1       0.40       0.00
7:00              326          4          9         77        3.5    1023.02     496.40        4.7        3.1       0.40       0.00
8:00              313          0          4         82        2.8    1023.66     496.60        4.7        2.6       0.60       0.20
9:00              311          2          7         75        3.4    1024.81     496.60        4.7        2.6       0.60       0.00
10:00             341          1          5         70        3.9    1025.59     496.60        4.7        2.6       0.60       0.00
11:00             309          1          8         61        4.3    1026.26     496.60        4.7        2.6       0.60       0.00
12:00              28          1          7         57        5.0    1027.34     496.60        5.0        2.6       0.60       0.00
13:00             344          2          6         52        6.1    1028.12     496.60        6.1        2.6       0.60       0.00
14:00             328          3          7         58        5.3    1028.96     496.60        6.4        2.6       0.60       0.00
15:00               9          1          5         64        4.5    1029.74     496.60        6.4        2.6       0.60       0.00
16:00             346          2          6         56        5.4    1029.88     496.60        6.4        2.6       0.60       0.00
17:00             320          2          5         63        5.3    1030.08     496.60        6.4        2.6       0.60       0.00
18:00              98          1          6         68        4.6    1030.18     496.60        6.4        2.6       0.60       0.00

 


Detaljar i gr

8/4/20
Time         Wind Dir   Wind Spd  Wind Gust   Humidity       Temp  Raw Barom   Tot Rain Temp Out H Temp Out L  DailyRain   HourRain
                            mps        mps          %         C         mb         mm         C         C         mm         mm
0:00              298          4          8         54        9.5    1027.07     489.00        9.5        9.5       0.00       0.00
1:00              309          4          8         57        9.5    1026.30     489.00        9.7        9.5       0.00       0.00
2:00              292          4          9         58        9.7    1025.62     489.00        9.8        9.4       0.00       0.00
3:00              336          5         10         57        9.7    1025.45     489.00        9.8        9.4       0.00       0.00
4:00               10          4         11         56        9.9    1023.69     489.00        9.9        9.4       0.00       0.00
5:00              348          4         11         58        9.9    1022.44     489.00        9.9        9.4       0.00       0.00
6:00              319          7         11         62        9.8    1021.26     489.00        9.9        9.3       0.00       0.00
7:00              291          8         14         62        9.9    1020.48     489.00       10.2        9.3       0.00       0.00
8:00              314          4         13         63        9.9    1019.87     489.00       10.2        9.3       0.00       0.00
9:00              323          5         13         68        9.1    1020.01     489.00       10.2        9.1       0.00       0.00
10:00             344          5         11         73        8.3    1019.47     489.40       10.2        7.7       0.40       0.40
11:00             340          6          9         70        8.8    1019.57     489.40       10.2        7.7       0.40       0.20
12:00             327          4          8         72        8.6    1018.66     489.40       10.2        7.7       0.40       0.00
13:00             285          4          9         68        9.2    1017.85     489.60       10.2        7.7       0.60       0.20
14:00             336          5         11         78        7.8    1018.19     489.80       10.2        7.7       0.80       0.20
15:00             296          1          5         84        5.1    1019.60     492.40       10.2        5.1       3.40       2.80
16:00             355          2          6         84        4.5    1019.40     494.20       10.2        4.4       5.20       3.00
17:00             302          4          7         85        4.1    1019.57     495.00       10.2        4.1       6.00       1.00
18:00             296          4          8         79        4.6    1019.74     495.00       10.2        4.0       6.00       0.40
19:00             350          1          5         76        5.1    1019.47     495.00       10.2        4.0       6.00       0.00
20:00             351          2          5         80        4.7    1019.81     495.00       10.2        4.0       6.00       0.00
21:00             300          5          7         85        3.7    1019.94     495.80       10.2        3.3       6.80       0.80
22:00             302          4          8         83        3.8    1020.11     496.00       10.2        3.3       7.00       0.20
23:00             292          4          7         81        4.3    1019.81     496.00       10.2        3.3       7.00       0.00